DAL2446 KBIS-KLAS
Flight info
| Callsign | DAL2446 |
|---|---|
| Flight time | 2h 20m |
| Altitude | 36000 |
| Route | N0439F360 DCT DPR DCT IIP DCT CELIA DCT HVE DCT GGAPP CHOWW4 |
| Aircraft | A320/M-SDE3FGHIRWY/LB1 |
Departure
| Time | 2026-04-16 00:59 |
|---|---|
| Airport | Bismarck Municipal Airport (KBIS) |
Arrival
| Time | 2026-04-16 03:20 |
|---|---|
| Airport | Harry Reid International Airport (KLAS) |
| Time | Latitude | Longitude | Altitude | Speed | Heading |
|---|---|---|---|---|---|
| 2026-04-16 00:41 | 46.77555 | -100.75692 | 1675 ft | 0 kts | 227° |
| 2026-04-16 00:48 | 46.77561 | -100.75683 | 1675 ft | 2 kts | 227° |
| 2026-04-16 00:48 | 46.77570 | -100.75668 | 1675 ft | 3 kts | 227° |
| 2026-04-16 00:49 | 46.77584 | -100.75649 | 1675 ft | 3 kts | 213° |
| 2026-04-16 00:50 | 46.77688 | -100.75682 | 1675 ft | 0 kts | 138° |
| 2026-04-16 00:51 | 46.77687 | -100.75681 | 1675 ft | 0 kts | 138° |
| 2026-04-16 00:52 | 46.77681 | -100.75673 | 1675 ft | 3 kts | 137° |
| 2026-04-16 00:52 | 46.77672 | -100.75637 | 1675 ft | 5 kts | 99° |
| 2026-04-16 00:52 | 46.77652 | -100.75572 | 1675 ft | 9 kts | 136° |
| 2026-04-16 00:52 | 46.77597 | -100.75501 | 1675 ft | 12 kts | 140° |
| 2026-04-16 00:53 | 46.77523 | -100.75403 | 1675 ft | 16 kts | 139° |
| 2026-04-16 00:53 | 46.77433 | -100.75287 | 1675 ft | 18 kts | 135° |
| 2026-04-16 00:53 | 46.77346 | -100.75163 | 1675 ft | 17 kts | 137° |
| 2026-04-16 00:53 | 46.77262 | -100.75046 | 1675 ft | 16 kts | 135° |
| 2026-04-16 00:54 | 46.77180 | -100.74936 | 1675 ft | 16 kts | 138° |
| 2026-04-16 00:54 | 46.77099 | -100.74832 | 1675 ft | 15 kts | 138° |
| 2026-04-16 00:54 | 46.77021 | -100.74729 | 1675 ft | 15 kts | 138° |
| 2026-04-16 00:54 | 46.76943 | -100.74627 | 1675 ft | 15 kts | 138° |
| 2026-04-16 00:55 | 46.76892 | -100.74559 | 1675 ft | 15 kts | 135° |
| 2026-04-16 00:55 | 46.76817 | -100.74452 | 1675 ft | 15 kts | 137° |
| 2026-04-16 00:55 | 46.76739 | -100.74349 | 1675 ft | 15 kts | 138° |
| 2026-04-16 00:55 | 46.76636 | -100.74210 | 1675 ft | 15 kts | 136° |
| 2026-04-16 00:56 | 46.76582 | -100.74142 | 1675 ft | 15 kts | 138° |
| 2026-04-16 00:56 | 46.76534 | -100.74079 | 1675 ft | 2 kts | 137° |
| 2026-04-16 00:56 | 46.76523 | -100.74063 | 1675 ft | 2 kts | 137° |
| 2026-04-16 00:56 | 46.76517 | -100.74056 | 1675 ft | 2 kts | 137° |
| 2026-04-16 00:57 | 46.76527 | -100.73990 | 1675 ft | 5 kts | 46° |
| 2026-04-16 00:57 | 46.76551 | -100.73953 | 1675 ft | 5 kts | 47° |
| 2026-04-16 00:57 | 46.76574 | -100.73916 | 1675 ft | 5 kts | 47° |
| 2026-04-16 00:58 | 46.76602 | -100.73872 | 1675 ft | 6 kts | 47° |
| 2026-04-16 00:58 | 46.76634 | -100.73845 | 1675 ft | 5 kts | 346° |
| 2026-04-16 00:58 | 46.76650 | -100.73862 | 1675 ft | 0 kts | 314° |
| 2026-04-16 00:59 | 46.76814 | -100.74084 | 1675 ft | 71 kts | 317° |
| 2026-04-16 00:59 | 46.77355 | -100.74802 | 1676 ft | 137 kts | 316° |
| 2026-04-16 00:59 | 46.78126 | -100.75809 | 1784 ft | 170 kts | 318° |
| 2026-04-16 00:59 | 46.78978 | -100.76938 | 2523 ft | 164 kts | 315° |
| 2026-04-16 01:00 | 46.79757 | -100.78148 | 3039 ft | 175 kts | 312° |
| 2026-04-16 01:00 | 46.80558 | -100.79425 | 3294 ft | 192 kts | 312° |
| 2026-04-16 01:00 | 46.81489 | -100.80921 | 3650 ft | 206 kts | 312° |
| 2026-04-16 01:00 | 46.82498 | -100.82541 | 3974 ft | 225 kts | 312° |
| 2026-04-16 01:01 | 46.83590 | -100.84287 | 4417 ft | 240 kts | 312° |
| 2026-04-16 01:01 | 46.84594 | -100.86287 | 4867 ft | 255 kts | 295° |
| 2026-04-16 01:01 | 46.85010 | -100.88866 | 5325 ft | 270 kts | 271° |
| 2026-04-16 01:01 | 46.84648 | -100.91584 | 5927 ft | 277 kts | 247° |
| 2026-04-16 01:02 | 46.83550 | -100.93907 | 6643 ft | 281 kts | 224° |
| 2026-04-16 01:02 | 46.81906 | -100.95443 | 7389 ft | 284 kts | 203° |
| 2026-04-16 01:02 | 46.80036 | -100.96409 | 8161 ft | 286 kts | 199° |
| 2026-04-16 01:02 | 46.78131 | -100.97288 | 8924 ft | 288 kts | 198° |
| 2026-04-16 01:03 | 46.76211 | -100.98141 | 9673 ft | 290 kts | 198° |
| 2026-04-16 01:03 | 46.74271 | -100.98996 | 10387 ft | 293 kts | 198° |
| 2026-04-16 01:03 | 46.72283 | -100.99882 | 10869 ft | 306 kts | 198° |
| 2026-04-16 01:03 | 46.70210 | -101.00814 | 11276 ft | 319 kts | 198° |
| 2026-04-16 01:04 | 46.68038 | -101.01792 | 11651 ft | 333 kts | 198° |
| 2026-04-16 01:04 | 46.65787 | -101.02805 | 12155 ft | 341 kts | 198° |
| 2026-04-16 01:04 | 46.63510 | -101.03823 | 12849 ft | 343 kts | 198° |
| 2026-04-16 01:04 | 46.61225 | -101.04841 | 13533 ft | 345 kts | 198° |
| 2026-04-16 01:05 | 46.58957 | -101.05852 | 14198 ft | 346 kts | 199° |
| 2026-04-16 01:05 | 46.56644 | -101.06885 | 14831 ft | 348 kts | 199° |
| 2026-04-16 01:05 | 46.54317 | -101.07924 | 15405 ft | 352 kts | 200° |
| 2026-04-16 01:05 | 46.51960 | -101.08975 | 15844 ft | 356 kts | 200° |
| 2026-04-16 01:06 | 46.49584 | -101.10034 | 16089 ft | 357 kts | 200° |
| 2026-04-16 01:06 | 46.47190 | -101.11101 | 16545 ft | 363 kts | 201° |
| 2026-04-16 01:06 | 46.44753 | -101.12184 | 17035 ft | 367 kts | 201° |
| 2026-04-16 01:06 | 46.42293 | -101.13277 | 17510 ft | 372 kts | 201° |
| 2026-04-16 01:07 | 46.39810 | -101.14381 | 18005 ft | 375 kts | 201° |
| 2026-04-16 01:07 | 46.37302 | -101.15494 | 18505 ft | 377 kts | 201° |
| 2026-04-16 01:07 | 46.34782 | -101.16607 | 19001 ft | 380 kts | 201° |
| 2026-04-16 01:07 | 46.32277 | -101.17713 | 19457 ft | 383 kts | 201° |
| 2026-04-16 01:08 | 46.29685 | -101.18859 | 19917 ft | 386 kts | 201° |
| 2026-04-16 01:08 | 46.27142 | -101.19981 | 20356 ft | 388 kts | 201° |
| 2026-04-16 01:08 | 46.24551 | -101.21122 | 20814 ft | 390 kts | 201° |
| 2026-04-16 01:08 | 46.21944 | -101.22269 | 21254 ft | 393 kts | 201° |
| 2026-04-16 01:09 | 46.19319 | -101.23426 | 21665 ft | 395 kts | 200° |
| 2026-04-16 01:09 | 46.16683 | -101.24587 | 22076 ft | 397 kts | 200° |
| 2026-04-16 01:09 | 46.14027 | -101.25753 | 22469 ft | 400 kts | 200° |
| 2026-04-16 01:09 | 46.11353 | -101.26928 | 22853 ft | 402 kts | 200° |
| 2026-04-16 01:10 | 46.08663 | -101.28107 | 23233 ft | 405 kts | 200° |
| 2026-04-16 01:10 | 46.05960 | -101.29288 | 23599 ft | 407 kts | 200° |
| 2026-04-16 01:10 | 46.03235 | -101.30478 | 23957 ft | 410 kts | 200° |
| 2026-04-16 01:10 | 46.00489 | -101.31676 | 24306 ft | 412 kts | 200° |
| 2026-04-16 01:11 | 45.97737 | -101.32878 | 24649 ft | 414 kts | 200° |
| 2026-04-16 01:11 | 45.94993 | -101.34075 | 24979 ft | 417 kts | 200° |
| 2026-04-16 01:11 | 45.92209 | -101.35292 | 25252 ft | 420 kts | 200° |
| 2026-04-16 01:11 | 45.89394 | -101.36517 | 25546 ft | 423 kts | 200° |
| 2026-04-16 01:12 | 45.86569 | -101.37741 | 25854 ft | 425 kts | 200° |
| 2026-04-16 01:12 | 45.83729 | -101.38973 | 26164 ft | 427 kts | 200° |
| 2026-04-16 01:12 | 45.80879 | -101.40211 | 26462 ft | 429 kts | 200° |
| 2026-04-16 01:12 | 45.78016 | -101.41455 | 26731 ft | 432 kts | 200° |
| 2026-04-16 01:13 | 45.75135 | -101.42704 | 27005 ft | 434 kts | 200° |
| 2026-04-16 01:13 | 45.72233 | -101.43957 | 27282 ft | 436 kts | 200° |
| 2026-04-16 01:13 | 45.69326 | -101.45210 | 27551 ft | 438 kts | 200° |
| 2026-04-16 01:13 | 45.66401 | -101.46471 | 27811 ft | 440 kts | 200° |
| 2026-04-16 01:14 | 45.63462 | -101.47739 | 28069 ft | 442 kts | 200° |
| 2026-04-16 01:14 | 45.60510 | -101.49010 | 28317 ft | 444 kts | 200° |
| 2026-04-16 01:14 | 45.57548 | -101.50282 | 28562 ft | 446 kts | 200° |
| 2026-04-16 01:14 | 45.54570 | -101.51561 | 28788 ft | 448 kts | 200° |
| 2026-04-16 01:15 | 45.51588 | -101.52844 | 29109 ft | 447 kts | 200° |
| 2026-04-16 01:15 | 45.48600 | -101.54124 | 29424 ft | 447 kts | 200° |
| 2026-04-16 01:15 | 45.45621 | -101.55399 | 29742 ft | 447 kts | 201° |
| 2026-04-16 01:15 | 45.42644 | -101.56671 | 30048 ft | 446 kts | 201° |
| 2026-04-16 01:16 | 45.39708 | -101.57924 | 30345 ft | 446 kts | 201° |
| 2026-04-16 01:16 | 45.36732 | -101.59194 | 30644 ft | 446 kts | 201° |
| 2026-04-16 01:16 | 45.33713 | -101.60482 | 30935 ft | 446 kts | 201° |
| 2026-04-16 01:16 | 45.30743 | -101.61750 | 31224 ft | 445 kts | 201° |
| 2026-04-16 01:17 | 45.27809 | -101.62999 | 31496 ft | 445 kts | 201° |
| 2026-04-16 01:17 | 45.24839 | -101.64259 | 31772 ft | 445 kts | 201° |
| 2026-04-16 01:17 | 45.21875 | -101.65517 | 32038 ft | 445 kts | 201° |
| 2026-04-16 01:17 | 45.18912 | -101.66774 | 32306 ft | 444 kts | 201° |
| 2026-04-16 01:18 | 45.15941 | -101.68034 | 32564 ft | 444 kts | 201° |
| 2026-04-16 01:18 | 45.12977 | -101.69291 | 32814 ft | 444 kts | 201° |
| 2026-04-16 01:18 | 45.10053 | -101.70661 | 33047 ft | 440 kts | 207° |
| 2026-04-16 01:18 | 45.07367 | -101.72659 | 33265 ft | 433 kts | 218° |
| 2026-04-16 01:19 | 45.05093 | -101.75375 | 33470 ft | 426 kts | 230° |
| 2026-04-16 01:19 | 45.03111 | -101.78473 | 33692 ft | 424 kts | 233° |
| 2026-04-16 01:19 | 45.01190 | -101.81658 | 33717 ft | 426 kts | 233° |
| 2026-04-16 01:20 | 44.97301 | -101.87943 | 33711 ft | 428 kts | 231° |
| 2026-04-16 01:20 | 44.93240 | -101.94104 | 33709 ft | 429 kts | 231° |
| 2026-04-16 01:21 | 44.89202 | -102.00295 | 33708 ft | 428 kts | 231° |
| 2026-04-16 01:21 | 44.85185 | -102.06522 | 33708 ft | 429 kts | 231° |
| 2026-04-16 01:22 | 44.81152 | -102.12715 | 33694 ft | 429 kts | 231° |
| 2026-04-16 01:22 | 44.77101 | -102.18922 | 33670 ft | 430 kts | 231° |
| 2026-04-16 01:23 | 44.73044 | -102.25131 | 33659 ft | 430 kts | 231° |
| 2026-04-16 01:23 | 44.69007 | -102.31284 | 33654 ft | 431 kts | 231° |
| 2026-04-16 01:24 | 44.64943 | -102.37474 | 33646 ft | 431 kts | 231° |
| 2026-04-16 01:24 | 44.60869 | -102.43671 | 33657 ft | 432 kts | 231° |
| 2026-04-16 01:25 | 44.56782 | -102.49868 | 33648 ft | 433 kts | 230° |
| 2026-04-16 01:25 | 44.52685 | -102.56057 | 33641 ft | 433 kts | 230° |
| 2026-04-16 01:25 | 44.50630 | -102.59159 | 33767 ft | 435 kts | 230° |
| 2026-04-16 01:26 | 44.48573 | -102.62262 | 33965 ft | 435 kts | 230° |
| 2026-04-16 01:26 | 44.46514 | -102.65367 | 34133 ft | 435 kts | 230° |
| 2026-04-16 01:26 | 44.44453 | -102.68477 | 34300 ft | 435 kts | 230° |
| 2026-04-16 01:26 | 44.42386 | -102.71586 | 34468 ft | 436 kts | 230° |
| 2026-04-16 01:27 | 44.40323 | -102.74678 | 34656 ft | 435 kts | 230° |
| 2026-04-16 01:27 | 44.38253 | -102.77779 | 34807 ft | 436 kts | 230° |
| 2026-04-16 01:27 | 44.36209 | -102.80840 | 34950 ft | 436 kts | 230° |
| 2026-04-16 01:27 | 44.34142 | -102.83934 | 35104 ft | 436 kts | 230° |
| 2026-04-16 01:28 | 44.32071 | -102.87032 | 35254 ft | 436 kts | 230° |
| 2026-04-16 01:28 | 44.29996 | -102.90131 | 35381 ft | 436 kts | 230° |
| 2026-04-16 01:28 | 44.27925 | -102.93222 | 35517 ft | 436 kts | 230° |
| 2026-04-16 01:28 | 44.25850 | -102.96306 | 35656 ft | 436 kts | 230° |
| 2026-04-16 01:29 | 44.23769 | -102.99395 | 35690 ft | 436 kts | 230° |
| 2026-04-16 01:29 | 44.19615 | -103.05583 | 35689 ft | 436 kts | 230° |
| 2026-04-16 01:30 | 44.15452 | -103.11757 | 35690 ft | 438 kts | 230° |
| 2026-04-16 01:30 | 44.11281 | -103.17937 | 35690 ft | 438 kts | 230° |
| 2026-04-16 01:31 | 44.07098 | -103.24104 | 35697 ft | 438 kts | 230° |
| 2026-04-16 01:31 | 44.02945 | -103.30213 | 35705 ft | 438 kts | 230° |
| 2026-04-16 01:32 | 43.98766 | -103.36365 | 35706 ft | 438 kts | 230° |
| 2026-04-16 01:32 | 43.94562 | -103.42530 | 35707 ft | 441 kts | 230° |
| 2026-04-16 01:33 | 43.90322 | -103.48727 | 35766 ft | 444 kts | 230° |
| 2026-04-16 01:33 | 43.86055 | -103.54962 | 35826 ft | 447 kts | 230° |
| 2026-04-16 01:34 | 43.81776 | -103.61200 | 35831 ft | 446 kts | 230° |
| 2026-04-16 01:34 | 43.77506 | -103.67408 | 35834 ft | 443 kts | 230° |
| 2026-04-16 01:35 | 43.73257 | -103.73560 | 35816 ft | 440 kts | 230° |
| 2026-04-16 01:35 | 43.69039 | -103.79668 | 35775 ft | 438 kts | 230° |
| 2026-04-16 01:36 | 43.64855 | -103.85722 | 35742 ft | 438 kts | 230° |
| 2026-04-16 01:36 | 43.60614 | -103.91838 | 35754 ft | 443 kts | 229° |
| 2026-04-16 01:37 | 43.56335 | -103.97977 | 35813 ft | 446 kts | 229° |
| 2026-04-16 01:37 | 43.52022 | -104.04161 | 35832 ft | 446 kts | 229° |
| 2026-04-16 01:38 | 43.47721 | -104.10311 | 35830 ft | 443 kts | 229° |
| 2026-04-16 01:38 | 43.43468 | -104.16396 | 35814 ft | 440 kts | 229° |
| 2026-04-16 01:39 | 43.39940 | -104.21426 | 35776 ft | 437 kts | 229° |
| 2026-04-16 01:39 | 43.35724 | -104.27423 | 35735 ft | 436 kts | 229° |
| 2026-04-16 01:40 | 43.30805 | -104.34412 | 35735 ft | 440 kts | 229° |
| 2026-04-16 01:40 | 43.26526 | -104.40474 | 35787 ft | 444 kts | 229° |
| 2026-04-16 01:41 | 43.22903 | -104.45583 | 35825 ft | 447 kts | 229° |
| 2026-04-16 01:41 | 43.18588 | -104.51675 | 35818 ft | 447 kts | 229° |
| 2026-04-16 01:42 | 43.14270 | -104.57761 | 35817 ft | 443 kts | 229° |
| 2026-04-16 01:42 | 43.09975 | -104.63779 | 35799 ft | 440 kts | 229° |
| 2026-04-16 01:43 | 43.05700 | -104.69766 | 35757 ft | 439 kts | 229° |
| 2026-04-16 01:43 | 43.01428 | -104.75751 | 35754 ft | 442 kts | 229° |
| 2026-04-16 01:44 | 42.97129 | -104.81761 | 35797 ft | 446 kts | 229° |
| 2026-04-16 01:44 | 42.92766 | -104.87832 | 35851 ft | 449 kts | 229° |
| 2026-04-16 01:45 | 42.88389 | -104.93910 | 35843 ft | 447 kts | 229° |
| 2026-04-16 01:45 | 42.84050 | -104.99920 | 35846 ft | 443 kts | 229° |
| 2026-04-16 01:46 | 42.79721 | -105.05903 | 35835 ft | 440 kts | 228° |
| 2026-04-16 01:46 | 42.75468 | -105.11787 | 35817 ft | 436 kts | 228° |
| 2026-04-16 01:47 | 42.71218 | -105.17640 | 35775 ft | 433 kts | 228° |
| 2026-04-16 01:47 | 42.66976 | -105.23510 | 35742 ft | 436 kts | 229° |
| 2026-04-16 01:48 | 42.62783 | -105.29517 | 35774 ft | 439 kts | 229° |
| 2026-04-16 01:48 | 42.58573 | -105.35548 | 35834 ft | 441 kts | 229° |
| 2026-04-16 01:49 | 42.54346 | -105.41584 | 35833 ft | 444 kts | 229° |
| 2026-04-16 01:49 | 42.50112 | -105.47611 | 35832 ft | 439 kts | 229° |
| 2026-04-16 01:50 | 42.45918 | -105.53562 | 35827 ft | 434 kts | 229° |
| 2026-04-16 01:50 | 42.41767 | -105.59446 | 35784 ft | 430 kts | 229° |
| 2026-04-16 01:51 | 42.37640 | -105.65291 | 35769 ft | 429 kts | 229° |
| 2026-04-16 01:51 | 42.33495 | -105.71160 | 35789 ft | 433 kts | 229° |
| 2026-04-16 01:52 | 42.29312 | -105.77051 | 35795 ft | 436 kts | 229° |
| 2026-04-16 01:52 | 42.25109 | -105.82954 | 35797 ft | 438 kts | 229° |
| 2026-04-16 01:53 | 42.20892 | -105.88880 | 35792 ft | 436 kts | 229° |
| 2026-04-16 01:53 | 42.16697 | -105.94759 | 35752 ft | 434 kts | 229° |
| 2026-04-16 01:54 | 42.12487 | -106.00641 | 35752 ft | 437 kts | 229° |
| 2026-04-16 01:54 | 42.08252 | -106.06555 | 35816 ft | 438 kts | 229° |
| 2026-04-16 01:55 | 42.04008 | -106.12453 | 35872 ft | 437 kts | 229° |
| 2026-04-16 01:55 | 41.99781 | -106.18330 | 35897 ft | 437 kts | 229° |
| 2026-04-16 01:56 | 41.95584 | -106.24170 | 35900 ft | 437 kts | 229° |
| 2026-04-16 01:56 | 41.91348 | -106.30017 | 35907 ft | 436 kts | 228° |
| 2026-04-16 01:57 | 41.87107 | -106.35857 | 35919 ft | 436 kts | 228° |
| 2026-04-16 01:57 | 41.82881 | -106.41695 | 35949 ft | 435 kts | 228° |
| 2026-04-16 01:58 | 41.78663 | -106.47503 | 35964 ft | 434 kts | 228° |
| 2026-04-16 01:58 | 41.74468 | -106.53261 | 35972 ft | 434 kts | 228° |
| 2026-04-16 01:59 | 41.70252 | -106.59036 | 35977 ft | 433 kts | 228° |
| 2026-04-16 01:59 | 41.66034 | -106.64800 | 35994 ft | 432 kts | 228° |
| 2026-04-16 02:00 | 41.61830 | -106.70543 | 36002 ft | 431 kts | 228° |
| 2026-04-16 02:00 | 41.57654 | -106.76224 | 36005 ft | 431 kts | 228° |
| 2026-04-16 02:01 | 41.53449 | -106.81936 | 36006 ft | 430 kts | 228° |
| 2026-04-16 02:01 | 41.49262 | -106.87626 | 36007 ft | 429 kts | 228° |
| 2026-04-16 02:02 | 41.45065 | -106.93310 | 36007 ft | 429 kts | 228° |
| 2026-04-16 02:02 | 41.40900 | -106.98931 | 36011 ft | 428 kts | 228° |
| 2026-04-16 02:03 | 41.36707 | -107.04578 | 36015 ft | 428 kts | 228° |
| 2026-04-16 02:03 | 41.32512 | -107.10229 | 36018 ft | 428 kts | 228° |
| 2026-04-16 02:04 | 41.26262 | -107.18629 | 36022 ft | 427 kts | 228° |
| 2026-04-16 02:04 | 41.22074 | -107.24234 | 36026 ft | 427 kts | 227° |
| 2026-04-16 02:05 | 41.17879 | -107.29830 | 36028 ft | 427 kts | 227° |
| 2026-04-16 02:05 | 41.13686 | -107.35437 | 36031 ft | 427 kts | 227° |
| 2026-04-16 02:06 | 41.09510 | -107.40996 | 36034 ft | 427 kts | 227° |
| 2026-04-16 02:06 | 41.05311 | -107.46577 | 36040 ft | 427 kts | 227° |
| 2026-04-16 02:07 | 41.01110 | -107.52155 | 36043 ft | 428 kts | 227° |
| 2026-04-16 02:07 | 40.96898 | -107.57726 | 36043 ft | 428 kts | 227° |
| 2026-04-16 02:08 | 40.92685 | -107.63293 | 36043 ft | 428 kts | 227° |
| 2026-04-16 02:08 | 40.88466 | -107.68862 | 36043 ft | 429 kts | 227° |
| 2026-04-16 02:09 | 40.84244 | -107.74427 | 36043 ft | 429 kts | 227° |
| 2026-04-16 02:09 | 40.79999 | -107.79984 | 36043 ft | 429 kts | 227° |
| 2026-04-16 02:10 | 40.75721 | -107.85423 | 36045 ft | 430 kts | 226° |
| 2026-04-16 02:10 | 40.71410 | -107.90890 | 36046 ft | 430 kts | 226° |
| 2026-04-16 02:11 | 40.67100 | -107.96392 | 36046 ft | 431 kts | 226° |
| 2026-04-16 02:11 | 40.62786 | -108.01876 | 36047 ft | 431 kts | 226° |
| 2026-04-16 02:12 | 40.58467 | -108.07360 | 36048 ft | 432 kts | 226° |
| 2026-04-16 02:12 | 40.54134 | -108.12836 | 36049 ft | 432 kts | 226° |
| 2026-04-16 02:13 | 40.49801 | -108.18319 | 36050 ft | 432 kts | 226° |
| 2026-04-16 02:13 | 40.45466 | -108.23794 | 36052 ft | 433 kts | 226° |
| 2026-04-16 02:14 | 40.41107 | -108.29274 | 36053 ft | 433 kts | 226° |
| 2026-04-16 02:14 | 40.36773 | -108.34725 | 36054 ft | 434 kts | 226° |
| 2026-04-16 02:15 | 40.32406 | -108.40198 | 36048 ft | 435 kts | 226° |
| 2026-04-16 02:15 | 40.28017 | -108.45694 | 36043 ft | 436 kts | 226° |
| 2026-04-16 02:16 | 40.23629 | -108.51187 | 36040 ft | 437 kts | 226° |
| 2026-04-16 02:16 | 40.19220 | -108.56687 | 36031 ft | 438 kts | 226° |
| 2026-04-16 02:17 | 40.14824 | -108.62161 | 36023 ft | 440 kts | 226° |
| 2026-04-16 02:17 | 40.10379 | -108.67680 | 36049 ft | 441 kts | 225° |
| 2026-04-16 02:18 | 40.05915 | -108.73210 | 36033 ft | 442 kts | 225° |
| 2026-04-16 02:18 | 40.01439 | -108.78757 | 36034 ft | 444 kts | 225° |
| 2026-04-16 02:19 | 39.96964 | -108.84291 | 36025 ft | 443 kts | 225° |
| 2026-04-16 02:19 | 39.92502 | -108.89789 | 36028 ft | 440 kts | 225° |
| 2026-04-16 02:20 | 39.88067 | -108.95242 | 36020 ft | 437 kts | 225° |
| 2026-04-16 02:20 | 39.83691 | -109.00631 | 35982 ft | 435 kts | 225° |
| 2026-04-16 02:21 | 39.79283 | -109.06033 | 35944 ft | 436 kts | 225° |
| 2026-04-16 02:21 | 39.74859 | -109.11445 | 35976 ft | 437 kts | 225° |
| 2026-04-16 02:22 | 39.70418 | -109.16878 | 36008 ft | 438 kts | 225° |
| 2026-04-16 02:22 | 39.65987 | -109.22278 | 36013 ft | 436 kts | 225° |
| 2026-04-16 02:23 | 39.61576 | -109.27649 | 36001 ft | 434 kts | 225° |
| 2026-04-16 02:23 | 39.57176 | -109.32999 | 35963 ft | 435 kts | 225° |
| 2026-04-16 02:24 | 39.52768 | -109.38343 | 35980 ft | 436 kts | 225° |
| 2026-04-16 02:24 | 39.48326 | -109.43723 | 36008 ft | 438 kts | 225° |
| 2026-04-16 02:25 | 39.43870 | -109.49107 | 36025 ft | 438 kts | 225° |
| 2026-04-16 02:25 | 39.39405 | -109.54492 | 36017 ft | 439 kts | 225° |
| 2026-04-16 02:26 | 39.34933 | -109.59880 | 36024 ft | 438 kts | 225° |
| 2026-04-16 02:26 | 39.31238 | -109.64316 | 36003 ft | 434 kts | 225° |
| 2026-04-16 02:27 | 39.26833 | -109.69597 | 35961 ft | 430 kts | 225° |
| 2026-04-16 02:27 | 39.22449 | -109.74852 | 35921 ft | 429 kts | 225° |
| 2026-04-16 02:28 | 39.18064 | -109.80099 | 35935 ft | 434 kts | 225° |
| 2026-04-16 02:28 | 39.13612 | -109.85416 | 35994 ft | 438 kts | 225° |
| 2026-04-16 02:29 | 39.09118 | -109.90769 | 36011 ft | 442 kts | 225° |
| 2026-04-16 02:29 | 39.04606 | -109.96134 | 36007 ft | 439 kts | 225° |
| 2026-04-16 02:30 | 39.00143 | -110.01429 | 36013 ft | 435 kts | 225° |
| 2026-04-16 02:30 | 38.95711 | -110.06683 | 35975 ft | 431 kts | 225° |
| 2026-04-16 02:31 | 38.91318 | -110.11880 | 35932 ft | 429 kts | 225° |
| 2026-04-16 02:31 | 38.86948 | -110.17040 | 35922 ft | 429 kts | 225° |
| 2026-04-16 02:32 | 38.82533 | -110.22238 | 35923 ft | 433 kts | 225° |
| 2026-04-16 02:32 | 38.78059 | -110.27504 | 35973 ft | 438 kts | 225° |
| 2026-04-16 02:33 | 38.73554 | -110.32801 | 36019 ft | 441 kts | 225° |
| 2026-04-16 02:33 | 38.69022 | -110.38109 | 36019 ft | 441 kts | 225° |
| 2026-04-16 02:34 | 38.64512 | -110.43380 | 36020 ft | 437 kts | 225° |
| 2026-04-16 02:34 | 38.60047 | -110.48602 | 36006 ft | 433 kts | 225° |
| 2026-04-16 02:35 | 38.55612 | -110.53777 | 35964 ft | 430 kts | 224° |
| 2026-04-16 02:35 | 38.51211 | -110.58897 | 35950 ft | 431 kts | 224° |
| 2026-04-16 02:36 | 38.46742 | -110.64091 | 35969 ft | 436 kts | 224° |
| 2026-04-16 02:36 | 38.42241 | -110.69349 | 36028 ft | 440 kts | 227° |
| 2026-04-16 02:37 | 38.38329 | -110.75356 | 36035 ft | 441 kts | 234° |
| 2026-04-16 02:37 | 38.34661 | -110.81603 | 36038 ft | 438 kts | 235° |
| 2026-04-16 02:38 | 38.30989 | -110.87708 | 36036 ft | 434 kts | 234° |
| 2026-04-16 02:38 | 38.27285 | -110.93748 | 35998 ft | 430 kts | 234° |
| 2026-04-16 02:39 | 38.23639 | -110.99761 | 35956 ft | 428 kts | 234° |
| 2026-04-16 02:39 | 38.19998 | -111.05772 | 36035 ft | 430 kts | 234° |
| 2026-04-16 02:40 | 38.16337 | -111.11767 | 36087 ft | 434 kts | 234° |
| 2026-04-16 02:40 | 38.12621 | -111.17848 | 36131 ft | 438 kts | 234° |
| 2026-04-16 02:41 | 38.08867 | -111.23986 | 36147 ft | 442 kts | 234° |
| 2026-04-16 02:41 | 38.05078 | -111.30173 | 36148 ft | 446 kts | 234° |
| 2026-04-16 02:42 | 38.01252 | -111.36394 | 36148 ft | 444 kts | 233° |
| 2026-04-16 02:42 | 37.97467 | -111.42545 | 36141 ft | 440 kts | 233° |
| 2026-04-16 02:43 | 37.93738 | -111.48596 | 36109 ft | 437 kts | 233° |
| 2026-04-16 02:43 | 37.89981 | -111.54674 | 36071 ft | 440 kts | 233° |
| 2026-04-16 02:44 | 37.86191 | -111.60795 | 36067 ft | 442 kts | 233° |
| 2026-04-16 02:44 | 37.82414 | -111.66895 | 36072 ft | 443 kts | 233° |
| 2026-04-16 02:45 | 37.78572 | -111.73081 | 36065 ft | 445 kts | 233° |
| 2026-04-16 02:45 | 37.74765 | -111.79191 | 36073 ft | 445 kts | 233° |
| 2026-04-16 02:46 | 37.70937 | -111.85334 | 36078 ft | 445 kts | 233° |
| 2026-04-16 02:46 | 37.67105 | -111.91476 | 36083 ft | 445 kts | 233° |
| 2026-04-16 02:47 | 37.63265 | -111.97608 | 36090 ft | 444 kts | 233° |
| 2026-04-16 02:47 | 37.59428 | -112.03721 | 36091 ft | 444 kts | 233° |
| 2026-04-16 02:48 | 37.55595 | -112.09829 | 36088 ft | 444 kts | 233° |
| 2026-04-16 02:48 | 37.51925 | -112.16083 | 36092 ft | 443 kts | 238° |
| 2026-04-16 02:49 | 37.48602 | -112.22544 | 36081 ft | 443 kts | 239° |
| 2026-04-16 02:49 | 37.45266 | -112.29060 | 36078 ft | 443 kts | 238° |
| 2026-04-16 02:50 | 37.41881 | -112.35543 | 36071 ft | 443 kts | 238° |
| 2026-04-16 02:50 | 37.38496 | -112.42049 | 36051 ft | 444 kts | 238° |
| 2026-04-16 02:51 | 37.35114 | -112.48556 | 36047 ft | 445 kts | 238° |
| 2026-04-16 02:51 | 37.31704 | -112.55067 | 36036 ft | 446 kts | 238° |
| 2026-04-16 02:52 | 37.28292 | -112.61595 | 36023 ft | 447 kts | 238° |
| 2026-04-16 02:52 | 37.24900 | -112.68078 | 36068 ft | 447 kts | 238° |
| 2026-04-16 02:53 | 37.21473 | -112.74600 | 36093 ft | 448 kts | 238° |
| 2026-04-16 02:53 | 37.18036 | -112.81139 | 36090 ft | 449 kts | 238° |
| 2026-04-16 02:54 | 37.14596 | -112.87664 | 36083 ft | 445 kts | 238° |
| 2026-04-16 02:54 | 37.11202 | -112.94089 | 36070 ft | 439 kts | 238° |
| 2026-04-16 02:55 | 37.07863 | -113.00400 | 36046 ft | 433 kts | 238° |
| 2026-04-16 02:55 | 37.04544 | -113.06657 | 36002 ft | 429 kts | 238° |
| 2026-04-16 02:56 | 37.02898 | -113.09757 | 35841 ft | 424 kts | 238° |
| 2026-04-16 02:56 | 37.01266 | -113.12828 | 35317 ft | 421 kts | 238° |
| 2026-04-16 02:56 | 36.99639 | -113.15889 | 34474 ft | 425 kts | 238° |
| 2026-04-16 02:56 | 36.98000 | -113.18975 | 33753 ft | 425 kts | 238° |
| 2026-04-16 02:57 | 36.96390 | -113.21999 | 33240 ft | 420 kts | 238° |
| 2026-04-16 02:57 | 36.94772 | -113.25027 | 32711 ft | 416 kts | 238° |
| 2026-04-16 02:57 | 36.93172 | -113.28019 | 32174 ft | 412 kts | 238° |
| 2026-04-16 02:57 | 36.91584 | -113.30990 | 31625 ft | 408 kts | 238° |
| 2026-04-16 02:58 | 36.90015 | -113.33930 | 31078 ft | 405 kts | 238° |
| 2026-04-16 02:58 | 36.88456 | -113.36844 | 30556 ft | 401 kts | 238° |
| 2026-04-16 02:58 | 36.86916 | -113.39718 | 30052 ft | 397 kts | 238° |
| 2026-04-16 02:58 | 36.85385 | -113.42574 | 29513 ft | 393 kts | 238° |
| 2026-04-16 02:59 | 36.83872 | -113.45398 | 28987 ft | 390 kts | 238° |
| 2026-04-16 02:59 | 36.82369 | -113.48200 | 28474 ft | 387 kts | 237° |
| 2026-04-16 02:59 | 36.80873 | -113.50978 | 27964 ft | 383 kts | 237° |
| 2026-04-16 02:59 | 36.79413 | -113.53694 | 27478 ft | 379 kts | 237° |
| 2026-04-16 03:00 | 36.77952 | -113.56422 | 26959 ft | 377 kts | 237° |
| 2026-04-16 03:00 | 36.76507 | -113.59121 | 26447 ft | 374 kts | 237° |
| 2026-04-16 03:00 | 36.75066 | -113.61807 | 25944 ft | 370 kts | 237° |
| 2026-04-16 03:00 | 36.73639 | -113.64462 | 25469 ft | 367 kts | 237° |
| 2026-04-16 03:01 | 36.72220 | -113.67099 | 24978 ft | 366 kts | 237° |
| 2026-04-16 03:01 | 36.70803 | -113.69731 | 24470 ft | 365 kts | 237° |
| 2026-04-16 03:01 | 36.69389 | -113.72355 | 23995 ft | 364 kts | 237° |
| 2026-04-16 03:01 | 36.67976 | -113.74976 | 23525 ft | 363 kts | 237° |
| 2026-04-16 03:02 | 36.66572 | -113.77581 | 23058 ft | 361 kts | 237° |
| 2026-04-16 03:02 | 36.65169 | -113.80181 | 22593 ft | 360 kts | 237° |
| 2026-04-16 03:02 | 36.63772 | -113.82761 | 22145 ft | 359 kts | 236° |
| 2026-04-16 03:02 | 36.62381 | -113.85329 | 21710 ft | 357 kts | 236° |
| 2026-04-16 03:03 | 36.60998 | -113.87886 | 21275 ft | 356 kts | 236° |
| 2026-04-16 03:03 | 36.59614 | -113.90442 | 20834 ft | 354 kts | 236° |
| 2026-04-16 03:03 | 36.58194 | -113.92940 | 20420 ft | 353 kts | 233° |
| 2026-04-16 03:03 | 36.56713 | -113.95365 | 20020 ft | 351 kts | 233° |
| 2026-04-16 03:04 | 36.55235 | -113.97727 | 19618 ft | 349 kts | 232° |
| 2026-04-16 03:04 | 36.53739 | -114.00108 | 19206 ft | 348 kts | 232° |
| 2026-04-16 03:04 | 36.52254 | -114.02487 | 18800 ft | 347 kts | 232° |
| 2026-04-16 03:04 | 36.50782 | -114.04856 | 18422 ft | 345 kts | 232° |
| 2026-04-16 03:05 | 36.49321 | -114.07215 | 18049 ft | 343 kts | 232° |
| 2026-04-16 03:05 | 36.47866 | -114.09562 | 17677 ft | 341 kts | 232° |
| 2026-04-16 03:05 | 36.46418 | -114.11892 | 17300 ft | 340 kts | 232° |
| 2026-04-16 03:05 | 36.44990 | -114.14185 | 16950 ft | 338 kts | 232° |
| 2026-04-16 03:06 | 36.43538 | -114.16519 | 16598 ft | 336 kts | 232° |
| 2026-04-16 03:06 | 36.42109 | -114.18815 | 16263 ft | 334 kts | 232° |
| 2026-04-16 03:06 | 36.39275 | -114.23349 | 15591 ft | 330 kts | 231° |
| 2026-04-16 03:07 | 36.37866 | -114.25592 | 15260 ft | 329 kts | 231° |
| 2026-04-16 03:07 | 36.36466 | -114.27789 | 14913 ft | 328 kts | 231° |
| 2026-04-16 03:07 | 36.35041 | -114.30007 | 14522 ft | 327 kts | 231° |
| 2026-04-16 03:07 | 36.33628 | -114.32208 | 14146 ft | 324 kts | 231° |
| 2026-04-16 03:08 | 36.32231 | -114.34391 | 13772 ft | 321 kts | 231° |
| 2026-04-16 03:08 | 36.30852 | -114.36549 | 13400 ft | 317 kts | 231° |
| 2026-04-16 03:08 | 36.29489 | -114.38684 | 13042 ft | 314 kts | 231° |
| 2026-04-16 03:08 | 36.28144 | -114.40794 | 12691 ft | 310 kts | 231° |
| 2026-04-16 03:09 | 36.26811 | -114.42882 | 12312 ft | 307 kts | 231° |
| 2026-04-16 03:09 | 36.25504 | -114.44922 | 11969 ft | 303 kts | 231° |
| 2026-04-16 03:09 | 36.24204 | -114.46936 | 11757 ft | 295 kts | 231° |
| 2026-04-16 03:09 | 36.22914 | -114.48909 | 11321 ft | 294 kts | 231° |
| 2026-04-16 03:10 | 36.21625 | -114.50877 | 10896 ft | 293 kts | 231° |
| 2026-04-16 03:10 | 36.20340 | -114.52840 | 10482 ft | 292 kts | 231° |
| 2026-04-16 03:10 | 36.19069 | -114.54786 | 10118 ft | 289 kts | 231° |
| 2026-04-16 03:10 | 36.18236 | -114.56065 | 9876 ft | 286 kts | 231° |
| 2026-04-16 03:11 | 36.16992 | -114.57973 | 9493 ft | 284 kts | 231° |
| 2026-04-16 03:11 | 36.15356 | -114.60474 | 8994 ft | 281 kts | 231° |
| 2026-04-16 03:11 | 36.14530 | -114.61733 | 8807 ft | 278 kts | 231° |
| 2026-04-16 03:11 | 36.12965 | -114.64134 | 8577 ft | 264 kts | 232° |
| 2026-04-16 03:12 | 36.12208 | -114.65303 | 8446 ft | 258 kts | 232° |
| 2026-04-16 03:12 | 36.11096 | -114.67009 | 8313 ft | 245 kts | 231° |
| 2026-04-16 03:12 | 36.10058 | -114.68590 | 8187 ft | 234 kts | 231° |
| 2026-04-16 03:12 | 36.09030 | -114.70154 | 8062 ft | 231 kts | 231° |
| 2026-04-16 03:13 | 36.08029 | -114.71709 | 8004 ft | 231 kts | 236° |
| 2026-04-16 03:13 | 36.07486 | -114.73527 | 7981 ft | 232 kts | 262° |
| 2026-04-16 03:13 | 36.07392 | -114.75518 | 7810 ft | 230 kts | 267° |
| 2026-04-16 03:13 | 36.07374 | -114.77465 | 7579 ft | 224 kts | 268° |
| 2026-04-16 03:14 | 36.07387 | -114.79375 | 7327 ft | 222 kts | 269° |
| 2026-04-16 03:14 | 36.07402 | -114.81282 | 7056 ft | 221 kts | 268° |
| 2026-04-16 03:14 | 36.07398 | -114.83174 | 6777 ft | 220 kts | 268° |
| 2026-04-16 03:14 | 36.07386 | -114.85059 | 6492 ft | 219 kts | 268° |
| 2026-04-16 03:15 | 36.07383 | -114.86939 | 6205 ft | 218 kts | 268° |
| 2026-04-16 03:15 | 36.07387 | -114.88811 | 5917 ft | 218 kts | 268° |
| 2026-04-16 03:15 | 36.07387 | -114.90681 | 5629 ft | 217 kts | 268° |
| 2026-04-16 03:15 | 36.07383 | -114.92551 | 5341 ft | 217 kts | 267° |
| 2026-04-16 03:16 | 36.07380 | -114.94415 | 5053 ft | 217 kts | 267° |
| 2026-04-16 03:16 | 36.07381 | -114.96271 | 4765 ft | 214 kts | 268° |
| 2026-04-16 03:16 | 36.07380 | -114.98088 | 4482 ft | 208 kts | 268° |
| 2026-04-16 03:16 | 36.07376 | -114.99830 | 4266 ft | 196 kts | 268° |
| 2026-04-16 03:17 | 36.07378 | -115.01439 | 3991 ft | 184 kts | 267° |
| 2026-04-16 03:17 | 36.07372 | -115.02965 | 3752 ft | 170 kts | 266° |
| 2026-04-16 03:17 | 36.07375 | -115.04361 | 3534 ft | 155 kts | 266° |
| 2026-04-16 03:17 | 36.07371 | -115.05644 | 3317 ft | 143 kts | 266° |
| 2026-04-16 03:18 | 36.07371 | -115.06852 | 3132 ft | 140 kts | 266° |
| 2026-04-16 03:18 | 36.07371 | -115.08051 | 2944 ft | 139 kts | 266° |
| 2026-04-16 03:18 | 36.07371 | -115.09239 | 2759 ft | 138 kts | 266° |
| 2026-04-16 03:18 | 36.07370 | -115.10428 | 2574 ft | 138 kts | 267° |
| 2026-04-16 03:19 | 36.07368 | -115.11613 | 2390 ft | 138 kts | 268° |
| 2026-04-16 03:19 | 36.07367 | -115.12788 | 2217 ft | 136 kts | 269° |
| 2026-04-16 03:19 | 36.07361 | -115.13848 | 2195 ft | 101 kts | 276° |
| 2026-04-16 03:19 | 36.07363 | -115.14495 | 2195 ft | 50 kts | 271° |
| 2026-04-16 03:20 | 36.07361 | -115.14710 | 2195 ft | 0 kts | 256° |
| 2026-04-16 03:20 | 36.07361 | -115.14718 | 2195 ft | 8 kts | 271° |
| 2026-04-16 03:20 | 36.07371 | -115.14826 | 2195 ft | 13 kts | 289° |
| 2026-04-16 03:20 | 36.07412 | -115.14927 | 2195 ft | 13 kts | 298° |
| 2026-04-16 03:21 | 36.07456 | -115.15027 | 2195 ft | 13 kts | 298° |
| 2026-04-16 03:21 | 36.07503 | -115.15109 | 2195 ft | 11 kts | 324° |
| 2026-04-16 03:21 | 36.07573 | -115.15157 | 2195 ft | 12 kts | 331° |
| 2026-04-16 03:21 | 36.07646 | -115.15200 | 2195 ft | 12 kts | 335° |
| 2026-04-16 03:22 | 36.07720 | -115.15242 | 2195 ft | 12 kts | 335° |
| 2026-04-16 03:22 | 36.07789 | -115.15286 | 2195 ft | 11 kts | 331° |
| 2026-04-16 03:22 | 36.07859 | -115.15328 | 2195 ft | 11 kts | 336° |
| 2026-04-16 03:22 | 36.07931 | -115.15369 | 2195 ft | 11 kts | 335° |
| 2026-04-16 03:23 | 36.08004 | -115.15410 | 2195 ft | 12 kts | 335° |
| 2026-04-16 03:23 | 36.08076 | -115.15452 | 2195 ft | 12 kts | 333° |
| 2026-04-16 03:23 | 36.08141 | -115.15475 | 2195 ft | 8 kts | 58° |
| 2026-04-16 03:23 | 36.08134 | -115.15410 | 2195 ft | 7 kts | 101° |
| 2026-04-16 03:24 | 36.08130 | -115.15355 | 2195 ft | 6 kts | 64° |
| 2026-04-16 03:24 | 36.08160 | -115.15337 | 2195 ft | 5 kts | 15° |
| 2026-04-16 03:24 | 36.08189 | -115.15327 | 2195 ft | 4 kts | 15° |
| 2026-04-16 03:24 | 36.08213 | -115.15319 | 2195 ft | 3 kts | 16° |
| 2026-04-16 03:25 | 36.08231 | -115.15311 | 2195 ft | 0 kts | 18° |